sensor_id;sensor_type;location;lat;lon;timestamp;pressure;altitude;pressure_sealevel;temperature;humidity
77279;BME280;66332;50.436;15.378;2023-11-21T00:02:21;97547.16;;;5.52;100.00
77279;BME280;66332;50.436;15.378;2023-11-21T00:07:02;97550.09;;;5.41;100.00
77279;BME280;66332;50.436;15.378;2023-11-21T00:11:43;97551.09;;;5.40;100.00
77279;BME280;66332;50.436;15.378;2023-11-21T00:16:24;97556.63;;;5.37;100.00
77279;BME280;66332;50.436;15.378;2023-11-21T00:21:06;97547.69;;;5.48;100.00
77279;BME280;66332;50.436;15.378;2023-11-21T00:25:46;97561.69;;;5.55;100.00
77279;BME280;66332;50.436;15.378;2023-11-21T00:30:27;97563.63;;;5.69;100.00
77279;BME280;66332;50.436;15.378;2023-11-21T00:35:09;97559.03;;;5.71;100.00
77279;BME280;66332;50.436;15.378;2023-11-21T00:39:50;97568.63;;;5.87;100.00
77279;BME280;66332;50.436;15.378;2023-11-21T00:44:31;97570.59;;;6.10;100.00
77279;BME280;66332;50.436;15.378;2023-11-21T00:49:12;97560.28;;;6.16;100.00
77279;BME280;66332;50.436;15.378;2023-11-21T00:53:53;97560.06;;;6.34;100.00
77279;BME280;66332;50.436;15.378;2023-11-21T00:58:34;97571.13;;;6.44;100.00
77279;BME280;66332;50.436;15.378;2023-11-21T01:03:16;97568.63;;;6.59;100.00
77279;BME280;66332;50.436;15.378;2023-11-21T01:07:56;97565.09;;;6.44;100.00
77279;BME280;66332;50.436;15.378;2023-11-21T01:12:38;97562.13;;;6.55;100.00
77279;BME280;66332;50.436;15.378;2023-11-21T01:17:19;97561.81;;;6.42;100.00
77279;BME280;66332;50.436;15.378;2023-11-21T01:22:00;97561.78;;;6.58;100.00
77279;BME280;66332;50.436;15.378;2023-11-21T01:26:40;97561.44;;;6.61;100.00
77279;BME280;66332;50.436;15.378;2023-11-21T01:31:21;97568.16;;;6.56;100.00
77279;BME280;66332;50.436;15.378;2023-11-21T01:36:02;97568.03;;;6.41;100.00
77279;BME280;66332;50.436;15.378;2023-11-21T01:40:43;97566.53;;;6.55;100.00
77279;BME280;66332;50.436;15.378;2023-11-21T01:45:24;97554.63;;;6.52;100.00
77279;BME280;66332;50.436;15.378;2023-11-21T01:50:09;97566.22;;;6.41;100.00
77279;BME280;66332;50.436;15.378;2023-11-21T01:54:53;97572.66;;;6.31;100.00
77279;BME280;66332;50.436;15.378;2023-11-21T01:59:36;97574.28;;;6.24;100.00
77279;BME280;66332;50.436;15.378;2023-11-21T02:04:18;97579.50;;;6.24;100.00
77279;BME280;66332;50.436;15.378;2023-11-21T02:08:58;97574.13;;;6.25;100.00
77279;BME280;66332;50.436;15.378;2023-11-21T02:13:40;97579.91;;;6.04;100.00
77279;BME280;66332;50.436;15.378;2023-11-21T02:18:23;97577.44;;;5.86;100.00
77279;BME280;66332;50.436;15.378;2023-11-21T02:23:04;97570.47;;;5.79;100.00
77279;BME280;66332;50.436;15.378;2023-11-21T02:27:45;97568.81;;;5.78;100.00
77279;BME280;66332;50.436;15.378;2023-11-21T02:32:28;97563.91;;;6.07;100.00
77279;BME280;66332;50.436;15.378;2023-11-21T02:37:12;97565.69;;;6.15;100.00
77279;BME280;66332;50.436;15.378;2023-11-21T02:41:53;97557.41;;;6.03;100.00
77279;BME280;66332;50.436;15.378;2023-11-21T02:46:34;97559.66;;;5.90;100.00
77279;BME280;66332;50.436;15.378;2023-11-21T02:51:15;97556.91;;;5.75;100.00
77279;BME280;66332;50.436;15.378;2023-11-21T02:55:56;97565.41;;;5.77;100.00
77279;BME280;66332;50.436;15.378;2023-11-21T03:00:37;97560.22;;;5.61;100.00
77279;BME280;66332;50.436;15.378;2023-11-21T03:05:17;97553.69;;;5.65;100.00
77279;BME280;66332;50.436;15.378;2023-11-21T03:09:58;97551.69;;;5.91;100.00
77279;BME280;66332;50.436;15.378;2023-11-21T03:14:39;97554.16;;;5.85;100.00
77279;BME280;66332;50.436;15.378;2023-11-21T03:19:20;97552.38;;;5.61;100.00
77279;BME280;66332;50.436;15.378;2023-11-21T03:24:01;97558.75;;;5.50;100.00
77279;BME280;66332;50.436;15.378;2023-11-21T03:28:41;97554.69;;;5.39;100.00
77279;BME280;66332;50.436;15.378;2023-11-21T03:33:22;97562.66;;;5.54;100.00
77279;BME280;66332;50.436;15.378;2023-11-21T03:38:03;97563.28;;;5.81;100.00
77279;BME280;66332;50.436;15.378;2023-11-21T03:42:45;97570.28;;;5.88;100.00
77279;BME280;66332;50.436;15.378;2023-11-21T03:47:28;97572.22;;;5.86;100.00
77279;BME280;66332;50.436;15.378;2023-11-21T03:52:09;97572.13;;;5.63;100.00
77279;BME280;66332;50.436;15.378;2023-11-21T03:56:50;97589.38;;;5.56;100.00
77279;BME280;66332;50.436;15.378;2023-11-21T04:01:31;97594.44;;;5.58;100.00
77279;BME280;66332;50.436;15.378;2023-11-21T04:06:12;97591.16;;;5.72;100.00
77279;BME280;66332;50.436;15.378;2023-11-21T04:10:52;97589.19;;;6.07;100.00
77279;BME280;66332;50.436;15.378;2023-11-21T04:15:34;97588.72;;;5.95;100.00
77279;BME280;66332;50.436;15.378;2023-11-21T04:20:15;97579.56;;;5.99;100.00
77279;BME280;66332;50.436;15.378;2023-11-21T04:24:55;97589.19;;;5.98;100.00
77279;BME280;66332;50.436;15.378;2023-11-21T04:29:36;97596.22;;;5.98;100.00
77279;BME280;66332;50.436;15.378;2023-11-21T04:34:17;97591.97;;;5.89;100.00
77279;BME280;66332;50.436;15.378;2023-11-21T04:38:58;97597.66;;;5.92;100.00
77279;BME280;66332;50.436;15.378;2023-11-21T04:43:39;97598.66;;;5.91;100.00
77279;BME280;66332;50.436;15.378;2023-11-21T04:48:20;97605.00;;;5.81;100.00
77279;BME280;66332;50.436;15.378;2023-11-21T04:53:00;97605.16;;;5.87;100.00
77279;BME280;66332;50.436;15.378;2023-11-21T04:57:41;97607.66;;;5.97;100.00
77279;BME280;66332;50.436;15.378;2023-11-21T05:02:22;97615.63;;;6.04;100.00
77279;BME280;66332;50.436;15.378;2023-11-21T05:07:03;97614.44;;;6.14;100.00
77279;BME280;66332;50.436;15.378;2023-11-21T05:11:44;97613.63;;;6.14;100.00
77279;BME280;66332;50.436;15.378;2023-11-21T05:16:26;97598.66;;;5.83;100.00
77279;BME280;66332;50.436;15.378;2023-11-21T05:21:08;97604.53;;;5.69;100.00
77279;BME280;66332;50.436;15.378;2023-11-21T05:25:49;97604.84;;;5.98;100.00
77279;BME280;66332;50.436;15.378;2023-11-21T05:30:29;97608.47;;;6.06;100.00
77279;BME280;66332;50.436;15.378;2023-11-21T05:35:10;97604.53;;;6.10;100.00
77279;BME280;66332;50.436;15.378;2023-11-21T05:39:56;97615.28;;;6.15;100.00
77279;BME280;66332;50.436;15.378;2023-11-21T05:44:43;97619.69;;;6.06;100.00
77279;BME280;66332;50.436;15.378;2023-11-21T05:49:24;97621.19;;;6.01;100.00
77279;BME280;66332;50.436;15.378;2023-11-21T05:54:07;97628.00;;;6.02;100.00
77279;BME280;66332;50.436;15.378;2023-11-21T05:58:48;97632.38;;;6.26;100.00
77279;BME280;66332;50.436;15.378;2023-11-21T06:03:29;97631.25;;;6.20;100.00
77279;BME280;66332;50.436;15.378;2023-11-21T06:08:10;97638.41;;;6.26;100.00
77279;BME280;66332;50.436;15.378;2023-11-21T06:12:52;97645.94;;;6.21;100.00
77279;BME280;66332;50.436;15.378;2023-11-21T06:17:33;97643.81;;;6.25;100.00
77279;BME280;66332;50.436;15.378;2023-11-21T06:22:16;97643.00;;;6.16;100.00
77279;BME280;66332;50.436;15.378;2023-11-21T06:26:57;97651.16;;;6.21;100.00
77279;BME280;66332;50.436;15.378;2023-11-21T06:31:38;97666.94;;;6.36;100.00
77279;BME280;66332;50.436;15.378;2023-11-21T06:36:20;97665.97;;;6.29;100.00
77279;BME280;66332;50.436;15.378;2023-11-21T06:41:01;97670.22;;;6.38;100.00
77279;BME280;66332;50.436;15.378;2023-11-21T06:45:42;97672.53;;;6.25;100.00
77279;BME280;66332;50.436;15.378;2023-11-21T06:50:25;97683.16;;;6.15;100.00
77279;BME280;66332;50.436;15.378;2023-11-21T06:55:06;97684.47;;;6.03;100.00
77279;BME280;66332;50.436;15.378;2023-11-21T06:59:48;97689.66;;;6.11;100.00
77279;BME280;66332;50.436;15.378;2023-11-21T07:04:31;97687.84;;;6.11;100.00
77279;BME280;66332;50.436;15.378;2023-11-21T07:09:12;97677.25;;;6.13;100.00
77279;BME280;66332;50.436;15.378;2023-11-21T07:13:53;97672.69;;;6.31;100.00
77279;BME280;66332;50.436;15.378;2023-11-21T07:18:34;97684.38;;;6.52;100.00
77279;BME280;66332;50.436;15.378;2023-11-21T07:23:14;97685.00;;;6.62;100.00
77279;BME280;66332;50.436;15.378;2023-11-21T07:27:56;97696.72;;;6.74;100.00
77279;BME280;66332;50.436;15.378;2023-11-21T07:32:37;97692.03;;;6.61;100.00
77279;BME280;66332;50.436;15.378;2023-11-21T07:37:20;97687.81;;;6.60;100.00
77279;BME280;66332;50.436;15.378;2023-11-21T07:42:00;97686.94;;;6.68;100.00
77279;BME280;66332;50.436;15.378;2023-11-21T07:46:43;97695.44;;;6.70;100.00
77279;BME280;66332;50.436;15.378;2023-11-21T07:51:24;97699.59;;;6.96;100.00
77279;BME280;66332;50.436;15.378;2023-11-21T07:56:07;97702.31;;;7.10;100.00
77279;BME280;66332;50.436;15.378;2023-11-21T08:00:49;97701.75;;;7.23;100.00
77279;BME280;66332;50.436;15.378;2023-11-21T08:05:30;97704.16;;;7.33;100.00
77279;BME280;66332;50.436;15.378;2023-11-21T08:10:11;97697.06;;;7.19;100.00
77279;BME280;66332;50.436;15.378;2023-11-21T08:14:52;97698.53;;;7.21;100.00
77279;BME280;66332;50.436;15.378;2023-11-21T08:19:32;97700.81;;;7.47;100.00
77279;BME280;66332;50.436;15.378;2023-11-21T08:24:13;97697.09;;;7.10;100.00
77279;BME280;66332;50.436;15.378;2023-11-21T08:28:54;97701.88;;;7.30;100.00
77279;BME280;66332;50.436;15.378;2023-11-21T08:33:37;97711.53;;;7.29;100.00
77279;BME280;66332;50.436;15.378;2023-11-21T08:38:17;97706.13;;;7.31;100.00
77279;BME280;66332;50.436;15.378;2023-11-21T08:42:58;97702.38;;;7.56;100.00
77279;BME280;66332;50.436;15.378;2023-11-21T08:47:39;97703.84;;;7.59;100.00
77279;BME280;66332;50.436;15.378;2023-11-21T08:52:20;97713.16;;;7.85;100.00
77279;BME280;66332;50.436;15.378;2023-11-21T08:57:04;97712.16;;;7.63;100.00
77279;BME280;66332;50.436;15.378;2023-11-21T09:01:45;97725.50;;;7.45;100.00
77279;BME280;66332;50.436;15.378;2023-11-21T09:06:27;97726.44;;;7.21;100.00
77279;BME280;66332;50.436;15.378;2023-11-21T09:11:07;97734.72;;;7.32;100.00
77279;BME280;66332;50.436;15.378;2023-11-21T09:15:48;97741.50;;;7.19;100.00
77279;BME280;66332;50.436;15.378;2023-11-21T09:20:30;97749.13;;;7.28;100.00
77279;BME280;66332;50.436;15.378;2023-11-21T09:25:11;97752.88;;;7.34;100.00
77279;BME280;66332;50.436;15.378;2023-11-21T09:29:52;97750.19;;;7.42;100.00
77279;BME280;66332;50.436;15.378;2023-11-21T09:34:34;97747.75;;;7.49;100.00
77279;BME280;66332;50.436;15.378;2023-11-21T09:39:19;97757.06;;;7.74;100.00
77279;BME280;66332;50.436;15.378;2023-11-21T09:44:00;97753.53;;;7.67;100.00
77279;BME280;66332;50.436;15.378;2023-11-21T09:48:43;97753.34;;;7.69;100.00
77279;BME280;66332;50.436;15.378;2023-11-21T09:53:27;97756.25;;;7.74;100.00
77279;BME280;66332;50.436;15.378;2023-11-21T09:58:13;97758.88;;;7.74;100.00
77279;BME280;66332;50.436;15.378;2023-11-21T10:02:55;97759.97;;;8.02;100.00
77279;BME280;66332;50.436;15.378;2023-11-21T10:07:39;97754.50;;;8.12;100.00
77279;BME280;66332;50.436;15.378;2023-11-21T10:12:21;97767.75;;;8.34;100.00
77279;BME280;66332;50.436;15.378;2023-11-21T10:17:04;97760.16;;;8.24;100.00
77279;BME280;66332;50.436;15.378;2023-11-21T10:21:46;97767.91;;;8.40;100.00
77279;BME280;66332;50.436;15.378;2023-11-21T10:26:32;97767.38;;;8.45;100.00
77279;BME280;66332;50.436;15.378;2023-11-21T10:31:12;97765.63;;;8.37;100.00
77279;BME280;66332;50.436;15.378;2023-11-21T10:35:53;97766.03;;;8.49;100.00
77279;BME280;66332;50.436;15.378;2023-11-21T10:40:38;97771.00;;;8.44;100.00
77279;BME280;66332;50.436;15.378;2023-11-21T10:45:19;97774.75;;;8.18;100.00
77279;BME280;66332;50.436;15.378;2023-11-21T10:50:04;97773.88;;;8.03;100.00
77279;BME280;66332;50.436;15.378;2023-11-21T10:54:46;97772.22;;;8.10;100.00
77279;BME280;66332;50.436;15.378;2023-11-21T10:59:29;97772.63;;;7.99;100.00
77279;BME280;66332;50.436;15.378;2023-11-21T11:04:11;97773.97;;;7.95;100.00
77279;BME280;66332;50.436;15.378;2023-11-21T11:08:57;97767.38;;;7.99;100.00
77279;BME280;66332;50.436;15.378;2023-11-21T11:13:43;97765.28;;;7.94;100.00
77279;BME280;66332;50.436;15.378;2023-11-21T11:18:24;97765.63;;;8.14;100.00
77279;BME280;66332;50.436;15.378;2023-11-21T11:28:19;97762.69;;;7.94;100.00
77279;BME280;66332;50.436;15.378;2023-11-21T11:37:48;97766.25;;;7.93;100.00
77279;BME280;66332;50.436;15.378;2023-11-21T11:42:28;97759.03;;;7.72;100.00
77279;BME280;66332;50.436;15.378;2023-11-21T11:47:21;97763.69;;;7.62;100.00
77279;BME280;66332;50.436;15.378;2023-11-21T11:52:37;97769.72;;;7.63;100.00
77279;BME280;66332;50.436;15.378;2023-11-21T11:57:19;97765.94;;;7.65;100.00
77279;BME280;66332;50.436;15.378;2023-11-21T12:02:04;97760.81;;;7.49;100.00
77279;BME280;66332;50.436;15.378;2023-11-21T12:06:45;97774.38;;;7.52;100.00
77279;BME280;66332;50.436;15.378;2023-11-21T12:11:33;97770.38;;;7.65;100.00
77279;BME280;66332;50.436;15.378;2023-11-21T12:16:16;97766.53;;;7.44;100.00
77279;BME280;66332;50.436;15.378;2023-11-21T12:20:56;97761.84;;;7.40;100.00
77279;BME280;66332;50.436;15.378;2023-11-21T12:25:37;97772.59;;;7.45;100.00
77279;BME280;66332;50.436;15.378;2023-11-21T12:30:25;97779.25;;;7.55;100.00
77279;BME280;66332;50.436;15.378;2023-11-21T12:35:12;97775.38;;;7.43;100.00
77279;BME280;66332;50.436;15.378;2023-11-21T12:39:53;97781.75;;;7.49;100.00
77279;BME280;66332;50.436;15.378;2023-11-21T12:44:39;97786.28;;;7.55;100.00
77279;BME280;66332;50.436;15.378;2023-11-21T12:49:21;97777.59;;;7.15;100.00
77279;BME280;66332;50.436;15.378;2023-11-21T12:54:02;97785.16;;;7.02;100.00
77279;BME280;66332;50.436;15.378;2023-11-21T12:58:45;97790.75;;;6.90;100.00
77279;BME280;66332;50.436;15.378;2023-11-21T13:03:27;97788.28;;;6.97;100.00
77279;BME280;66332;50.436;15.378;2023-11-21T13:08:11;97794.75;;;7.18;100.00
77279;BME280;66332;50.436;15.378;2023-11-21T13:12:53;97795.28;;;7.05;100.00
77279;BME280;66332;50.436;15.378;2023-11-21T13:17:35;97790.56;;;7.00;100.00
77279;BME280;66332;50.436;15.378;2023-11-21T13:22:16;97787.91;;;7.08;100.00
77279;BME280;66332;50.436;15.378;2023-11-21T13:26:58;97793.19;;;7.00;100.00
77279;BME280;66332;50.436;15.378;2023-11-21T13:31:39;97788.31;;;6.89;100.00
77279;BME280;66332;50.436;15.378;2023-11-21T13:36:22;97795.69;;;6.77;100.00
77279;BME280;66332;50.436;15.378;2023-11-21T13:41:03;97809.38;;;6.87;100.00
77279;BME280;66332;50.436;15.378;2023-11-21T13:45:49;97810.38;;;6.62;100.00
77279;BME280;66332;50.436;15.378;2023-11-21T13:50:48;97810.69;;;6.75;100.00
77279;BME280;66332;50.436;15.378;2023-11-21T13:55:48;97811.69;;;6.74;100.00
77279;BME280;66332;50.436;15.378;2023-11-21T14:00:29;97816.91;;;6.82;100.00
77279;BME280;66332;50.436;15.378;2023-11-21T14:05:25;97821.09;;;7.00;100.00
77279;BME280;66332;50.436;15.378;2023-11-21T14:10:09;97821.28;;;6.90;100.00
77279;BME280;66332;50.436;15.378;2023-11-21T14:14:54;97833.16;;;7.25;100.00
77279;BME280;66332;50.436;15.378;2023-11-21T14:19:35;97835.97;;;6.99;100.00
77279;BME280;66332;50.436;15.378;2023-11-21T14:24:19;97838.44;;;7.01;100.00
77279;BME280;66332;50.436;15.378;2023-11-21T14:29:00;97840.38;;;7.07;100.00
77279;BME280;66332;50.436;15.378;2023-11-21T14:33:41;97842.72;;;6.85;100.00
77279;BME280;66332;50.436;15.378;2023-11-21T14:38:22;97852.16;;;6.86;100.00
77279;BME280;66332;50.436;15.378;2023-11-21T14:43:03;97852.50;;;6.51;100.00
77279;BME280;66332;50.436;15.378;2023-11-21T14:47:47;97851.53;;;6.68;100.00
77279;BME280;66332;50.436;15.378;2023-11-21T14:52:45;97845.00;;;6.64;100.00
77279;BME280;66332;50.436;15.378;2023-11-21T14:57:36;97850.06;;;6.49;100.00
77279;BME280;66332;50.436;15.378;2023-11-21T15:02:17;97855.25;;;6.33;100.00
77279;BME280;66332;50.436;15.378;2023-11-21T15:07:03;97857.56;;;6.28;100.00
77279;BME280;66332;50.436;15.378;2023-11-21T15:11:44;97865.72;;;6.25;100.00
77279;BME280;66332;50.436;15.378;2023-11-21T15:16:26;97871.50;;;5.94;100.00
77279;BME280;66332;50.436;15.378;2023-11-21T15:21:07;97870.41;;;6.13;100.00
77279;BME280;66332;50.436;15.378;2023-11-21T15:25:51;97888.97;;;6.02;100.00
77279;BME280;66332;50.436;15.378;2023-11-21T15:30:33;97882.28;;;5.99;100.00
77279;BME280;66332;50.436;15.378;2023-11-21T15:35:14;97888.47;;;5.98;100.00
77279;BME280;66332;50.436;15.378;2023-11-21T15:39:55;97888.97;;;5.93;100.00
77279;BME280;66332;50.436;15.378;2023-11-21T15:44:36;97895.38;;;5.73;100.00
77279;BME280;66332;50.436;15.378;2023-11-21T15:49:17;97903.03;;;5.74;100.00
77279;BME280;66332;50.436;15.378;2023-11-21T15:54:02;97907.69;;;5.63;100.00
77279;BME280;66332;50.436;15.378;2023-11-21T15:58:42;97913.41;;;5.58;100.00
77279;BME280;66332;50.436;15.378;2023-11-21T16:03:23;97919.69;;;5.47;100.00
77279;BME280;66332;50.436;15.378;2023-11-21T16:08:04;97923.69;;;5.34;100.00
77279;BME280;66332;50.436;15.378;2023-11-21T16:12:45;97936.88;;;5.32;100.00
77279;BME280;66332;50.436;15.378;2023-11-21T16:17:27;97932.63;;;5.31;100.00
77279;BME280;66332;50.436;15.378;2023-11-21T16:22:07;97945.16;;;5.27;100.00
77279;BME280;66332;50.436;15.378;2023-11-21T16:26:48;97944.50;;;5.07;100.00
77279;BME280;66332;50.436;15.378;2023-11-21T16:31:29;97954.06;;;4.99;100.00
77279;BME280;66332;50.436;15.378;2023-11-21T16:36:10;97947.91;;;4.82;100.00
77279;BME280;66332;50.436;15.378;2023-11-21T16:40:51;97956.16;;;4.77;100.00
77279;BME280;66332;50.436;15.378;2023-11-21T16:45:32;97965.25;;;4.73;100.00
77279;BME280;66332;50.436;15.378;2023-11-21T16:50:13;97968.75;;;4.64;100.00
77279;BME280;66332;50.436;15.378;2023-11-21T16:54:53;97956.31;;;4.58;100.00
77279;BME280;66332;50.436;15.378;2023-11-21T16:59:34;97972.91;;;4.57;100.00
77279;BME280;66332;50.436;15.378;2023-11-21T17:04:16;97982.66;;;4.55;100.00
77279;BME280;66332;50.436;15.378;2023-11-21T17:08:59;97967.38;;;4.42;100.00
77279;BME280;66332;50.436;15.378;2023-11-21T17:13:41;97977.56;;;4.35;100.00
77279;BME280;66332;50.436;15.378;2023-11-21T17:18:22;97971.69;;;4.33;100.00
77279;BME280;66332;50.436;15.378;2023-11-21T17:23:04;97970.25;;;4.21;100.00
77279;BME280;66332;50.436;15.378;2023-11-21T17:27:46;97969.63;;;4.09;100.00
77279;BME280;66332;50.436;15.378;2023-11-21T17:32:27;97976.63;;;4.09;100.00
77279;BME280;66332;50.436;15.378;2023-11-21T17:37:09;97987.16;;;4.07;100.00
77279;BME280;66332;50.436;15.378;2023-11-21T17:41:52;97982.41;;;4.03;100.00
77279;BME280;66332;50.436;15.378;2023-11-21T17:46:33;97996.50;;;4.00;100.00
77279;BME280;66332;50.436;15.378;2023-11-21T17:51:14;98000.50;;;3.95;100.00
77279;BME280;66332;50.436;15.378;2023-11-21T17:55:55;98005.59;;;3.77;100.00
77279;BME280;66332;50.436;15.378;2023-11-21T18:00:36;98019.78;;;3.92;100.00
77279;BME280;66332;50.436;15.378;2023-11-21T18:05:17;98026.00;;;3.81;100.00
77279;BME280;66332;50.436;15.378;2023-11-21T18:09:59;98033.53;;;3.84;100.00
77279;BME280;66332;50.436;15.378;2023-11-21T18:14:40;98037.72;;;4.05;100.00
77279;BME280;66332;50.436;15.378;2023-11-21T18:19:21;98050.16;;;4.01;100.00
77279;BME280;66332;50.436;15.378;2023-11-21T18:24:02;98043.69;;;3.78;100.00
77279;BME280;66332;50.436;15.378;2023-11-21T18:28:43;98041.50;;;3.63;100.00
77279;BME280;66332;50.436;15.378;2023-11-21T18:33:24;98048.25;;;3.56;100.00
77279;BME280;66332;50.436;15.378;2023-11-21T18:38:05;98055.91;;;3.48;100.00
77279;BME280;66332;50.436;15.378;2023-11-21T18:42:46;98049.88;;;3.57;100.00
77279;BME280;66332;50.436;15.378;2023-11-21T18:47:26;98064.22;;;3.61;100.00
77279;BME280;66332;50.436;15.378;2023-11-21T18:52:07;98079.69;;;3.43;100.00
77279;BME280;66332;50.436;15.378;2023-11-21T18:56:49;98083.69;;;3.48;100.00
77279;BME280;66332;50.436;15.378;2023-11-21T19:01:29;98076.81;;;3.37;100.00
77279;BME280;66332;50.436;15.378;2023-11-21T19:06:11;98087.94;;;3.29;100.00
77279;BME280;66332;50.436;15.378;2023-11-21T19:10:55;98093.94;;;3.39;100.00
77279;BME280;66332;50.436;15.378;2023-11-21T19:15:36;98102.41;;;3.41;100.00
77279;BME280;66332;50.436;15.378;2023-11-21T19:20:17;98104.84;;;3.53;100.00
77279;BME280;66332;50.436;15.378;2023-11-21T19:24:59;98118.28;;;3.48;100.00
77279;BME280;66332;50.436;15.378;2023-11-21T19:29:40;98119.50;;;3.34;100.00
77279;BME280;66332;50.436;15.378;2023-11-21T19:34:21;98127.03;;;3.57;100.00
77279;BME280;66332;50.436;15.378;2023-11-21T19:39:02;98131.16;;;3.59;100.00
77279;BME280;66332;50.436;15.378;2023-11-21T19:43:43;98145.34;;;3.55;100.00
77279;BME280;66332;50.436;15.378;2023-11-21T19:48:24;98151.25;;;3.57;100.00
77279;BME280;66332;50.436;15.378;2023-11-21T19:53:06;98153.03;;;3.57;100.00
77279;BME280;66332;50.436;15.378;2023-11-21T19:57:49;98167.25;;;3.53;100.00
77279;BME280;66332;50.436;15.378;2023-11-21T20:02:30;98172.72;;;3.40;100.00
77279;BME280;66332;50.436;15.378;2023-11-21T20:07:11;98185.16;;;3.56;100.00
77279;BME280;66332;50.436;15.378;2023-11-21T20:11:54;98180.50;;;3.40;100.00
77279;BME280;66332;50.436;15.378;2023-11-21T20:16:39;98188.19;;;3.51;100.00
77279;BME280;66332;50.436;15.378;2023-11-21T20:21:21;98197.19;;;3.37;100.00
77279;BME280;66332;50.436;15.378;2023-11-21T20:26:03;98204.16;;;3.37;100.00
77279;BME280;66332;50.436;15.378;2023-11-21T20:30:45;98209.09;;;3.50;100.00
77279;BME280;66332;50.436;15.378;2023-11-21T20:35:26;98219.88;;;3.26;100.00
77279;BME280;66332;50.436;15.378;2023-11-21T20:40:07;98222.06;;;3.30;100.00
77279;BME280;66332;50.436;15.378;2023-11-21T20:44:49;98230.13;;;3.27;100.00
77279;BME280;66332;50.436;15.378;2023-11-21T20:49:30;98235.09;;;3.40;100.00
77279;BME280;66332;50.436;15.378;2023-11-21T20:54:11;98238.38;;;3.32;100.00
77279;BME280;66332;50.436;15.378;2023-11-21T20:58:52;98246.44;;;3.39;100.00
77279;BME280;66332;50.436;15.378;2023-11-21T21:03:33;98252.44;;;3.30;100.00
77279;BME280;66332;50.436;15.378;2023-11-21T21:08:14;98256.34;;;3.14;100.00
77279;BME280;66332;50.436;15.378;2023-11-21T21:12:55;98263.13;;;2.96;100.00
77279;BME280;66332;50.436;15.378;2023-11-21T21:17:37;98278.88;;;3.04;100.00
77279;BME280;66332;50.436;15.378;2023-11-21T21:22:20;98281.91;;;3.09;100.00
77279;BME280;66332;50.436;15.378;2023-11-21T21:27:01;98290.56;;;2.89;100.00
77279;BME280;66332;50.436;15.378;2023-11-21T21:31:42;98293.53;;;2.84;100.00
77279;BME280;66332;50.436;15.378;2023-11-21T21:36:23;98288.63;;;2.60;100.00
77279;BME280;66332;50.436;15.378;2023-11-21T21:41:08;98299.88;;;2.91;100.00
77279;BME280;66332;50.436;15.378;2023-11-21T21:45:50;98303.31;;;2.71;100.00
77279;BME280;66332;50.436;15.378;2023-11-21T21:50:31;98318.31;;;2.67;100.00
77279;BME280;66332;50.436;15.378;2023-11-21T21:55:12;98318.72;;;2.63;100.00
77279;BME280;66332;50.436;15.378;2023-11-21T21:59:56;98324.91;;;2.50;100.00
77279;BME280;66332;50.436;15.378;2023-11-21T22:04:37;98324.34;;;2.47;100.00
77279;BME280;66332;50.436;15.378;2023-11-21T22:09:20;98336.34;;;2.48;100.00
77279;BME280;66332;50.436;15.378;2023-11-21T22:14:02;98340.59;;;2.49;100.00
77279;BME280;66332;50.436;15.378;2023-11-21T22:18:43;98344.84;;;2.50;100.00
77279;BME280;66332;50.436;15.378;2023-11-21T22:23:25;98355.16;;;2.61;100.00
77279;BME280;66332;50.436;15.378;2023-11-21T22:28:06;98348.69;;;2.35;100.00
77279;BME280;66332;50.436;15.378;2023-11-21T22:32:48;98353.22;;;2.21;100.00
77279;BME280;66332;50.436;15.378;2023-11-21T22:37:31;98356.75;;;2.20;100.00
77279;BME280;66332;50.436;15.378;2023-11-21T22:42:12;98365.19;;;2.01;100.00
77279;BME280;66332;50.436;15.378;2023-11-21T22:46:53;98371.31;;;2.00;100.00
77279;BME280;66332;50.436;15.378;2023-11-21T22:51:33;98370.75;;;1.86;100.00
77279;BME280;66332;50.436;15.378;2023-11-21T22:56:14;98375.59;;;1.79;100.00
77279;BME280;66332;50.436;15.378;2023-11-21T23:00:56;98378.66;;;1.84;100.00
77279;BME280;66332;50.436;15.378;2023-11-21T23:05:38;98386.09;;;1.66;100.00
77279;BME280;66332;50.436;15.378;2023-11-21T23:10:20;98378.81;;;1.49;100.00
77279;BME280;66332;50.436;15.378;2023-11-21T23:15:03;98402.00;;;1.50;100.00
77279;BME280;66332;50.436;15.378;2023-11-21T23:19:44;98405.31;;;1.41;100.00
77279;BME280;66332;50.436;15.378;2023-11-21T23:24:24;98399.31;;;1.41;100.00
77279;BME280;66332;50.436;15.378;2023-11-21T23:29:05;98415.19;;;1.36;100.00
77279;BME280;66332;50.436;15.378;2023-11-21T23:33:46;98420.72;;;1.31;100.00
77279;BME280;66332;50.436;15.378;2023-11-21T23:38:27;98425.31;;;1.39;100.00
77279;BME280;66332;50.436;15.378;2023-11-21T23:43:08;98432.28;;;1.38;100.00
77279;BME280;66332;50.436;15.378;2023-11-21T23:47:49;98424.50;;;1.38;100.00
77279;BME280;66332;50.436;15.378;2023-11-21T23:52:30;98434.59;;;1.30;100.00
77279;BME280;66332;50.436;15.378;2023-11-21T23:57:10;98436.59;;;1.27;100.00
